Palmer, AK

9:22 PM AKDT on July 04, 2015 (GMT -0800)
Gold-Key Estates | | Change Station
CLOSE
Current Station
Personal Weather Station
Location: Palmer, AK
Elevation: 203 ft
Nearby Weather Stations

Elev 203 ft 61.62 °N, 149.10 °W | Updated 1 minute ago

Overcast
Overcast
60.6 °F
Feels Like 60.6 °F
N
0.0
Wind Variable Wind from ESE

Today
High -- | Low -- °F
--% Chance of Precip.
Yesterday
High -- | Low -- °F
Precip. -- in
4:22 AM 11:37 PM
Waning Gibbous, 87% visible
Pressure 30.19 in
Visibility 10.0 miles
Clouds Overcast 7000 ft
Dew Point 44 °F
Humidity 55%
Rainfall 0.00 in
Snow Depth Not available.
UV 0 out of 12
Pollen Not available.
Air Quality Not available.
Flu Activity Not available.
METAR PAAQ 050453Z AUTO 13011KT 10SM OVC070 16/07 A3018 RMK AO2 SLP222 T01560067 TSNO $

More Conditions Fewer Conditions

Pressure 30.19 in
Visibility 10.0 miles
Clouds Overcast 7000 ft
Dew Point 44 °F
Humidity 55%
Rainfall 0.00 in
Snow Depth Not available.
UV 0 out of 12
Pollen Not available.
Air Quality Not available.
Flu Activity Not available.
METAR PAAQ 050453Z AUTO 13011KT 10SM OVC070 16/07 A3018 RMK AO2 SLP222 T01560067 TSNO $

More Conditions Fewer Conditions

10-Day Weather Forecast

×

Almanac

Astronomy

Jul. 04, 2015 Rise Set
Actual Time
Civil Twilight
Nautical Twilight
Astronomical Twilight
Moon
Length of Visible Light
Length of Day
Tomorrow will be .
, % of the Moon is Illuminated

Today's Extremes

State Highs State Lows

Community

WunderPhotos

Upload Photos

1,835,203 photos uploaded!

WunderBlogs® & News

Nearby

Air Quality

  Air Quality AQ Index Pollutant
Not available.

Snow Depth

Station Depth Elevation

Earthquake Activity

City Distance Mag. Time & Date
Minimum magnitude displayed is 2.5.

Coastal Water Temperatures

Place Temperature

Stations

Nearby Weather Stations

Station Location Temp. Windchill Dew Point Humidity Wind Precip. Elev Updated Type